sensor_id;sensor_type;location;lat;lon;timestamp;temperature;humidity
21830;DHT22;11077;50.264;6.798;2022-10-31T00:00:32;10.60;99.90
21830;DHT22;11077;50.264;6.798;2022-10-31T00:02:59;10.60;99.90
21830;DHT22;11077;50.264;6.798;2022-10-31T00:05:27;10.60;99.90
21830;DHT22;11077;50.264;6.798;2022-10-31T00:07:54;10.50;99.90
21830;DHT22;11077;50.264;6.798;2022-10-31T00:10:22;10.50;99.90
21830;DHT22;11077;50.264;6.798;2022-10-31T00:12:51;10.50;99.90
21830;DHT22;11077;50.264;6.798;2022-10-31T00:15:18;10.50;99.90
21830;DHT22;11077;50.264;6.798;2022-10-31T00:17:45;10.50;99.90
21830;DHT22;11077;50.264;6.798;2022-10-31T00:20:12;10.40;99.90
21830;DHT22;11077;50.264;6.798;2022-10-31T00:22:40;10.30;99.90
21830;DHT22;11077;50.264;6.798;2022-10-31T00:25:07;10.30;99.90
21830;DHT22;11077;50.264;6.798;2022-10-31T00:27:36;10.30;99.90
21830;DHT22;11077;50.264;6.798;2022-10-31T00:30:04;10.30;99.90
21830;DHT22;11077;50.264;6.798;2022-10-31T00:32:31;10.30;99.90
21830;DHT22;11077;50.264;6.798;2022-10-31T00:34:59;10.30;99.90
21830;DHT22;11077;50.264;6.798;2022-10-31T00:37:27;10.30;99.90
21830;DHT22;11077;50.264;6.798;2022-10-31T00:39:54;10.30;99.90
21830;DHT22;11077;50.264;6.798;2022-10-31T00:42:21;10.30;99.90
21830;DHT22;11077;50.264;6.798;2022-10-31T00:44:50;10.20;99.90
21830;DHT22;11077;50.264;6.798;2022-10-31T00:47:17;10.20;99.90
21830;DHT22;11077;50.264;6.798;2022-10-31T00:49:45;10.20;99.90
21830;DHT22;11077;50.264;6.798;2022-10-31T00:52:13;10.10;99.90
21830;DHT22;11077;50.264;6.798;2022-10-31T00:54:40;10.10;99.90
21830;DHT22;11077;50.264;6.798;2022-10-31T00:57:07;10.10;99.90
21830;DHT22;11077;50.264;6.798;2022-10-31T00:59:34;10.10;99.90
21830;DHT22;11077;50.264;6.798;2022-10-31T01:02:03;10.10;99.90
21830;DHT22;11077;50.264;6.798;2022-10-31T01:04:30;10.00;99.90
21830;DHT22;11077;50.264;6.798;2022-10-31T01:06:57;10.00;99.90
21830;DHT22;11077;50.264;6.798;2022-10-31T01:09:25;10.00;99.90
21830;DHT22;11077;50.264;6.798;2022-10-31T01:11:52;10.00;99.90
21830;DHT22;11077;50.264;6.798;2022-10-31T01:14:19;9.90;99.90
21830;DHT22;11077;50.264;6.798;2022-10-31T01:16:46;9.90;99.90
21830;DHT22;11077;50.264;6.798;2022-10-31T01:19:15;10.00;99.90
21830;DHT22;11077;50.264;6.798;2022-10-31T01:21:42;9.90;99.90
21830;DHT22;11077;50.264;6.798;2022-10-31T01:24:09;10.00;99.90
21830;DHT22;11077;50.264;6.798;2022-10-31T01:26:37;10.00;99.90
21830;DHT22;11077;50.264;6.798;2022-10-31T01:29:06;10.00;99.90
21830;DHT22;11077;50.264;6.798;2022-10-31T01:31:36;10.00;99.90
21830;DHT22;11077;50.264;6.798;2022-10-31T01:34:04;10.00;99.90
21830;DHT22;11077;50.264;6.798;2022-10-31T01:36:35;10.00;99.90
21830;DHT22;11077;50.264;6.798;2022-10-31T01:39:05;10.00;99.90
21830;DHT22;11077;50.264;6.798;2022-10-31T01:41:36;10.00;99.90
21830;DHT22;11077;50.264;6.798;2022-10-31T01:47:13;9.90;99.90
21830;DHT22;11077;50.264;6.798;2022-10-31T01:49:46;9.90;99.90
21830;DHT22;11077;50.264;6.798;2022-10-31T01:52:20;9.80;99.90
21830;DHT22;11077;50.264;6.798;2022-10-31T01:54:53;9.80;99.90
21830;DHT22;11077;50.264;6.798;2022-10-31T01:57:22;9.80;99.90
21830;DHT22;11077;50.264;6.798;2022-10-31T01:59:53;9.90;99.90
21830;DHT22;11077;50.264;6.798;2022-10-31T02:02:21;9.80;99.90
21830;DHT22;11077;50.264;6.798;2022-10-31T02:04:49;9.90;99.90
21830;DHT22;11077;50.264;6.798;2022-10-31T02:07:24;9.90;99.90
21830;DHT22;11077;50.264;6.798;2022-10-31T02:09:55;9.80;99.90
21830;DHT22;11077;50.264;6.798;2022-10-31T02:12:24;9.80;99.90
21830;DHT22;11077;50.264;6.798;2022-10-31T02:14:58;9.80;99.90
21830;DHT22;11077;50.264;6.798;2022-10-31T02:17:26;9.80;99.90
21830;DHT22;11077;50.264;6.798;2022-10-31T02:20:00;9.80;99.90
21830;DHT22;11077;50.264;6.798;2022-10-31T02:22:34;9.80;99.90
21830;DHT22;11077;50.264;6.798;2022-10-31T02:25:20;9.80;99.90
21830;DHT22;11077;50.264;6.798;2022-10-31T02:28:17;9.80;99.90
21830;DHT22;11077;50.264;6.798;2022-10-31T02:31:01;9.90;99.90
21830;DHT22;11077;50.264;6.798;2022-10-31T02:33:38;9.90;99.90
21830;DHT22;11077;50.264;6.798;2022-10-31T02:36:11;9.90;99.90
21830;DHT22;11077;50.264;6.798;2022-10-31T02:38:50;10.00;99.90
21830;DHT22;11077;50.264;6.798;2022-10-31T02:41:37;10.00;99.90
21830;DHT22;11077;50.264;6.798;2022-10-31T02:44:18;9.90;99.90
21830;DHT22;11077;50.264;6.798;2022-10-31T02:46:54;9.90;99.90
21830;DHT22;11077;50.264;6.798;2022-10-31T02:49:31;10.00;99.90
21830;DHT22;11077;50.264;6.798;2022-10-31T02:51:59;10.00;99.90
21830;DHT22;11077;50.264;6.798;2022-10-31T02:54:27;10.00;99.90
21830;DHT22;11077;50.264;6.798;2022-10-31T02:56:58;10.00;99.90
21830;DHT22;11077;50.264;6.798;2022-10-31T02:59:28;10.00;99.90
21830;DHT22;11077;50.264;6.798;2022-10-31T03:08:12;10.00;99.90
21830;DHT22;11077;50.264;6.798;2022-10-31T03:10:46;10.00;99.90
21830;DHT22;11077;50.264;6.798;2022-10-31T03:13:21;10.00;99.90
21830;DHT22;11077;50.264;6.798;2022-10-31T03:15:51;10.00;99.90
21830;DHT22;11077;50.264;6.798;2022-10-31T03:18:25;10.00;99.90
21830;DHT22;11077;50.264;6.798;2022-10-31T03:20:58;10.10;99.90
21830;DHT22;11077;50.264;6.798;2022-10-31T03:23:29;10.00;99.90
21830;DHT22;11077;50.264;6.798;2022-10-31T03:26:01;10.00;99.90
21830;DHT22;11077;50.264;6.798;2022-10-31T03:28:34;10.00;99.90
21830;DHT22;11077;50.264;6.798;2022-10-31T03:31:04;9.90;99.90
21830;DHT22;11077;50.264;6.798;2022-10-31T03:33:38;9.80;99.90
21830;DHT22;11077;50.264;6.798;2022-10-31T03:36:08;9.80;99.90
21830;DHT22;11077;50.264;6.798;2022-10-31T03:38:37;9.90;99.90
21830;DHT22;11077;50.264;6.798;2022-10-31T03:41:09;9.80;99.90
21830;DHT22;11077;50.264;6.798;2022-10-31T03:43:41;9.80;99.90
21830;DHT22;11077;50.264;6.798;2022-10-31T03:46:09;9.90;99.90
21830;DHT22;11077;50.264;6.798;2022-10-31T03:48:38;9.80;99.90
21830;DHT22;11077;50.264;6.798;2022-10-31T03:51:10;9.80;99.90
21830;DHT22;11077;50.264;6.798;2022-10-31T03:53:45;9.80;99.90
21830;DHT22;11077;50.264;6.798;2022-10-31T03:56:24;9.80;99.90
21830;DHT22;11077;50.264;6.798;2022-10-31T03:58:58;9.80;99.90
21830;DHT22;11077;50.264;6.798;2022-10-31T04:01:30;9.70;99.90
21830;DHT22;11077;50.264;6.798;2022-10-31T04:04:01;9.70;99.90
21830;DHT22;11077;50.264;6.798;2022-10-31T04:06:30;9.80;99.90
21830;DHT22;11077;50.264;6.798;2022-10-31T04:09:04;9.80;99.90
21830;DHT22;11077;50.264;6.798;2022-10-31T04:11:36;9.80;99.90
21830;DHT22;11077;50.264;6.798;2022-10-31T04:14:31;9.70;99.90
21830;DHT22;11077;50.264;6.798;2022-10-31T04:17:00;9.70;99.90
21830;DHT22;11077;50.264;6.798;2022-10-31T04:19:36;9.70;99.90
21830;DHT22;11077;50.264;6.798;2022-10-31T04:22:18;9.60;99.90
21830;DHT22;11077;50.264;6.798;2022-10-31T04:24:48;9.60;99.90
21830;DHT22;11077;50.264;6.798;2022-10-31T04:27:17;9.60;99.90
21830;DHT22;11077;50.264;6.798;2022-10-31T04:29:45;9.60;99.90
21830;DHT22;11077;50.264;6.798;2022-10-31T04:32:13;9.60;99.90
21830;DHT22;11077;50.264;6.798;2022-10-31T04:34:42;9.60;99.90
21830;DHT22;11077;50.264;6.798;2022-10-31T04:37:10;9.60;99.90
21830;DHT22;11077;50.264;6.798;2022-10-31T04:39:38;9.60;99.90
21830;DHT22;11077;50.264;6.798;2022-10-31T04:42:35;9.50;99.90
21830;DHT22;11077;50.264;6.798;2022-10-31T04:45:05;9.50;99.90
21830;DHT22;11077;50.264;6.798;2022-10-31T04:47:35;9.50;99.90
21830;DHT22;11077;50.264;6.798;2022-10-31T04:50:11;9.40;99.90
21830;DHT22;11077;50.264;6.798;2022-10-31T04:52:45;9.50;99.90
21830;DHT22;11077;50.264;6.798;2022-10-31T04:55:20;9.40;99.90
21830;DHT22;11077;50.264;6.798;2022-10-31T04:59:16;9.40;99.90
21830;DHT22;11077;50.264;6.798;2022-10-31T05:01:54;9.40;99.90
21830;DHT22;11077;50.264;6.798;2022-10-31T05:04:43;9.40;99.90
21830;DHT22;11077;50.264;6.798;2022-10-31T05:07:11;9.50;99.90
21830;DHT22;11077;50.264;6.798;2022-10-31T05:09:39;9.40;99.90
21830;DHT22;11077;50.264;6.798;2022-10-31T05:12:07;9.40;99.90
21830;DHT22;11077;50.264;6.798;2022-10-31T05:14:54;9.40;99.90
21830;DHT22;11077;50.264;6.798;2022-10-31T05:17:45;9.40;99.90
21830;DHT22;11077;50.264;6.798;2022-10-31T05:20:52;9.40;99.90
21830;DHT22;11077;50.264;6.798;2022-10-31T05:23:49;9.40;99.90
21830;DHT22;11077;50.264;6.798;2022-10-31T05:26:21;9.30;99.90
21830;DHT22;11077;50.264;6.798;2022-10-31T05:28:50;9.30;99.90
21830;DHT22;11077;50.264;6.798;2022-10-31T05:31:22;9.30;99.90
21830;DHT22;11077;50.264;6.798;2022-10-31T05:33:51;9.30;99.90
21830;DHT22;11077;50.264;6.798;2022-10-31T05:36:45;9.30;99.90
21830;DHT22;11077;50.264;6.798;2022-10-31T05:39:15;9.30;99.90
21830;DHT22;11077;50.264;6.798;2022-10-31T05:41:49;9.30;99.90
21830;DHT22;11077;50.264;6.798;2022-10-31T05:44:24;9.30;99.90
21830;DHT22;11077;50.264;6.798;2022-10-31T05:47:15;9.30;99.90
21830;DHT22;11077;50.264;6.798;2022-10-31T05:49:53;9.30;99.90
21830;DHT22;11077;50.264;6.798;2022-10-31T05:52:39;9.30;99.90
21830;DHT22;11077;50.264;6.798;2022-10-31T05:55:28;9.30;99.90
21830;DHT22;11077;50.264;6.798;2022-10-31T05:58:12;9.20;99.90
21830;DHT22;11077;50.264;6.798;2022-10-31T06:00:49;9.30;99.90
21830;DHT22;11077;50.264;6.798;2022-10-31T06:03:19;9.30;99.90
21830;DHT22;11077;50.264;6.798;2022-10-31T06:05:49;9.30;99.90
21830;DHT22;11077;50.264;6.798;2022-10-31T06:08:17;9.30;99.90
21830;DHT22;11077;50.264;6.798;2022-10-31T06:10:46;9.30;99.90
21830;DHT22;11077;50.264;6.798;2022-10-31T06:13:19;9.40;99.90
21830;DHT22;11077;50.264;6.798;2022-10-31T06:15:57;9.50;99.90
21830;DHT22;11077;50.264;6.798;2022-10-31T06:18:34;9.50;99.90
21830;DHT22;11077;50.264;6.798;2022-10-31T06:21:05;9.60;99.90
21830;DHT22;11077;50.264;6.798;2022-10-31T06:23:35;9.60;99.90
21830;DHT22;11077;50.264;6.798;2022-10-31T06:26:32;9.70;99.90
21830;DHT22;11077;50.264;6.798;2022-10-31T06:29:00;9.80;99.90
21830;DHT22;11077;50.264;6.798;2022-10-31T06:31:47;9.90;99.90
21830;DHT22;11077;50.264;6.798;2022-10-31T06:34:28;9.90;99.90
21830;DHT22;11077;50.264;6.798;2022-10-31T06:36:57;9.90;99.90
21830;DHT22;11077;50.264;6.798;2022-10-31T06:39:32;10.00;99.90
21830;DHT22;11077;50.264;6.798;2022-10-31T06:42:04;10.10;99.90
21830;DHT22;11077;50.264;6.798;2022-10-31T06:44:35;10.20;99.90
21830;DHT22;11077;50.264;6.798;2022-10-31T06:47:43;10.10;99.90
21830;DHT22;11077;50.264;6.798;2022-10-31T06:50:28;10.20;99.90
21830;DHT22;11077;50.264;6.798;2022-10-31T06:52:58;10.20;99.90
21830;DHT22;11077;50.264;6.798;2022-10-31T06:55:41;10.30;99.90
21830;DHT22;11077;50.264;6.798;2022-10-31T06:58:12;10.30;99.90
21830;DHT22;11077;50.264;6.798;2022-10-31T07:00:52;10.30;99.90
21830;DHT22;11077;50.264;6.798;2022-10-31T07:03:25;10.30;99.90
21830;DHT22;11077;50.264;6.798;2022-10-31T07:06:01;10.40;99.90
21830;DHT22;11077;50.264;6.798;2022-10-31T07:08:43;10.40;99.90
21830;DHT22;11077;50.264;6.798;2022-10-31T07:11:16;10.50;99.90
21830;DHT22;11077;50.264;6.798;2022-10-31T07:14:22;10.50;99.90
21830;DHT22;11077;50.264;6.798;2022-10-31T07:16:58;10.60;99.90
21830;DHT22;11077;50.264;6.798;2022-10-31T07:19:42;10.70;99.90
21830;DHT22;11077;50.264;6.798;2022-10-31T07:22:18;10.80;99.90
21830;DHT22;11077;50.264;6.798;2022-10-31T07:24:45;10.80;99.90
21830;DHT22;11077;50.264;6.798;2022-10-31T07:27:40;10.90;99.90
21830;DHT22;11077;50.264;6.798;2022-10-31T07:30:13;11.00;99.90
21830;DHT22;11077;50.264;6.798;2022-10-31T07:32:43;11.10;99.90
21830;DHT22;11077;50.264;6.798;2022-10-31T07:35:16;11.20;99.90
21830;DHT22;11077;50.264;6.798;2022-10-31T07:37:49;11.20;99.90
21830;DHT22;11077;50.264;6.798;2022-10-31T07:40:17;11.30;99.90
21830;DHT22;11077;50.264;6.798;2022-10-31T07:42:48;11.30;99.90
21830;DHT22;11077;50.264;6.798;2022-10-31T07:45:35;11.30;99.90
21830;DHT22;11077;50.264;6.798;2022-10-31T07:48:26;11.40;99.90
21830;DHT22;11077;50.264;6.798;2022-10-31T07:51:12;11.50;99.90
21830;DHT22;11077;50.264;6.798;2022-10-31T07:54:18;11.50;99.90
21830;DHT22;11077;50.264;6.798;2022-10-31T07:56:53;11.60;99.90
21830;DHT22;11077;50.264;6.798;2022-10-31T07:59:23;11.60;99.90
21830;DHT22;11077;50.264;6.798;2022-10-31T08:01:55;11.60;99.90
21830;DHT22;11077;50.264;6.798;2022-10-31T08:04:52;11.60;99.90
21830;DHT22;11077;50.264;6.798;2022-10-31T08:07:39;11.60;99.90
21830;DHT22;11077;50.264;6.798;2022-10-31T08:10:20;11.70;99.90
21830;DHT22;11077;50.264;6.798;2022-10-31T08:12:57;11.80;99.90
21830;DHT22;11077;50.264;6.798;2022-10-31T08:15:38;11.80;99.90
21830;DHT22;11077;50.264;6.798;2022-10-31T08:18:11;11.90;99.90
21830;DHT22;11077;50.264;6.798;2022-10-31T08:20:43;12.00;99.90
21830;DHT22;11077;50.264;6.798;2022-10-31T08:23:12;12.10;99.90
21830;DHT22;11077;50.264;6.798;2022-10-31T08:25:43;12.20;99.90
21830;DHT22;11077;50.264;6.798;2022-10-31T08:28:13;12.30;99.90
21830;DHT22;11077;50.264;6.798;2022-10-31T08:30:43;12.40;99.90
21830;DHT22;11077;50.264;6.798;2022-10-31T08:33:37;12.40;99.90
21830;DHT22;11077;50.264;6.798;2022-10-31T08:36:18;12.50;99.90
21830;DHT22;11077;50.264;6.798;2022-10-31T08:39:09;12.50;99.90
21830;DHT22;11077;50.264;6.798;2022-10-31T08:41:40;12.60;99.90
21830;DHT22;11077;50.264;6.798;2022-10-31T08:44:12;12.80;99.90
21830;DHT22;11077;50.264;6.798;2022-10-31T08:46:46;12.80;99.90
21830;DHT22;11077;50.264;6.798;2022-10-31T08:49:14;12.90;99.90
21830;DHT22;11077;50.264;6.798;2022-10-31T08:51:48;13.00;99.90
21830;DHT22;11077;50.264;6.798;2022-10-31T08:54:20;13.10;99.90
21830;DHT22;11077;50.264;6.798;2022-10-31T08:56:55;13.30;99.90
21830;DHT22;11077;50.264;6.798;2022-10-31T08:59:38;13.40;99.90
21830;DHT22;11077;50.264;6.798;2022-10-31T09:02:15;13.50;99.90
21830;DHT22;11077;50.264;6.798;2022-10-31T09:04:45;13.70;99.90
21830;DHT22;11077;50.264;6.798;2022-10-31T09:07:15;13.80;99.90
21830;DHT22;11077;50.264;6.798;2022-10-31T09:09:43;14.00;99.90
21830;DHT22;11077;50.264;6.798;2022-10-31T09:12:15;14.10;99.90
21830;DHT22;11077;50.264;6.798;2022-10-31T09:15:14;14.20;99.90
21830;DHT22;11077;50.264;6.798;2022-10-31T09:17:49;14.30;99.90
21830;DHT22;11077;50.264;6.798;2022-10-31T09:20:28;14.40;99.90
21830;DHT22;11077;50.264;6.798;2022-10-31T09:23:01;14.40;99.90
21830;DHT22;11077;50.264;6.798;2022-10-31T09:25:35;14.50;99.90
21830;DHT22;11077;50.264;6.798;2022-10-31T09:28:25;14.60;99.90
21830;DHT22;11077;50.264;6.798;2022-10-31T09:30:57;14.60;99.90
21830;DHT22;11077;50.264;6.798;2022-10-31T09:33:43;14.70;99.90
21830;DHT22;11077;50.264;6.798;2022-10-31T09:36:37;14.80;99.90
21830;DHT22;11077;50.264;6.798;2022-10-31T09:39:19;14.90;99.90
21830;DHT22;11077;50.264;6.798;2022-10-31T09:42:06;15.00;99.90
21830;DHT22;11077;50.264;6.798;2022-10-31T09:44:45;15.00;99.90
21830;DHT22;11077;50.264;6.798;2022-10-31T09:47:35;15.00;99.90
21830;DHT22;11077;50.264;6.798;2022-10-31T09:50:28;15.00;99.90
21830;DHT22;11077;50.264;6.798;2022-10-31T09:53:17;15.00;99.90
21830;DHT22;11077;50.264;6.798;2022-10-31T09:55:51;15.00;99.90
21830;DHT22;11077;50.264;6.798;2022-10-31T09:58:23;15.00;99.90
21830;DHT22;11077;50.264;6.798;2022-10-31T10:00:54;15.00;99.90
21830;DHT22;11077;50.264;6.798;2022-10-31T10:03:31;15.00;99.90
21830;DHT22;11077;50.264;6.798;2022-10-31T10:06:14;15.10;99.90
21830;DHT22;11077;50.264;6.798;2022-10-31T10:09:02;15.20;99.90
21830;DHT22;11077;50.264;6.798;2022-10-31T10:11:58;15.30;99.90
21830;DHT22;11077;50.264;6.798;2022-10-31T10:14:45;15.50;99.90
21830;DHT22;11077;50.264;6.798;2022-10-31T10:17:24;15.60;99.90
21830;DHT22;11077;50.264;6.798;2022-10-31T10:22:57;15.60;99.90
21830;DHT22;11077;50.264;6.798;2022-10-31T10:25:34;15.70;99.90
21830;DHT22;11077;50.264;6.798;2022-10-31T10:28:15;15.80;99.90
21830;DHT22;11077;50.264;6.798;2022-10-31T10:30:48;15.90;99.90
21830;DHT22;11077;50.264;6.798;2022-10-31T10:33:21;16.00;99.90
21830;DHT22;11077;50.264;6.798;2022-10-31T10:35:52;16.10;99.90
21830;DHT22;11077;50.264;6.798;2022-10-31T10:38:25;16.10;99.90
21830;DHT22;11077;50.264;6.798;2022-10-31T10:40:55;16.10;99.90
21830;DHT22;11077;50.264;6.798;2022-10-31T10:43:26;16.10;99.90
21830;DHT22;11077;50.264;6.798;2022-10-31T10:46:04;16.20;99.90
21830;DHT22;11077;50.264;6.798;2022-10-31T10:48:57;16.20;99.90
21830;DHT22;11077;50.264;6.798;2022-10-31T10:51:31;16.30;99.90
21830;DHT22;11077;50.264;6.798;2022-10-31T10:54:16;16.30;99.90
21830;DHT22;11077;50.264;6.798;2022-10-31T10:56:55;16.30;99.90
21830;DHT22;11077;50.264;6.798;2022-10-31T10:59:26;16.40;99.90
21830;DHT22;11077;50.264;6.798;2022-10-31T11:01:58;16.40;99.90
21830;DHT22;11077;50.264;6.798;2022-10-31T11:04:33;16.50;99.90
21830;DHT22;11077;50.264;6.798;2022-10-31T11:07:04;16.50;99.90
21830;DHT22;11077;50.264;6.798;2022-10-31T11:09:33;16.50;99.90
21830;DHT22;11077;50.264;6.798;2022-10-31T11:12:07;16.50;99.90
21830;DHT22;11077;50.264;6.798;2022-10-31T11:14:44;16.50;99.90
21830;DHT22;11077;50.264;6.798;2022-10-31T11:17:20;16.60;99.90
21830;DHT22;11077;50.264;6.798;2022-10-31T11:20:02;16.60;99.90
21830;DHT22;11077;50.264;6.798;2022-10-31T11:22:30;16.60;99.90
21830;DHT22;11077;50.264;6.798;2022-10-31T11:24:57;16.60;99.90
21830;DHT22;11077;50.264;6.798;2022-10-31T11:27:26;16.70;99.90
21830;DHT22;11077;50.264;6.798;2022-10-31T11:30:04;16.70;99.90
21830;DHT22;11077;50.264;6.798;2022-10-31T11:32:31;16.70;99.90
21830;DHT22;11077;50.264;6.798;2022-10-31T11:35:02;16.80;99.90
21830;DHT22;11077;50.264;6.798;2022-10-31T11:37:32;16.70;99.90
21830;DHT22;11077;50.264;6.798;2022-10-31T11:40:05;16.80;99.90
21830;DHT22;11077;50.264;6.798;2022-10-31T11:42:37;16.80;99.90
21830;DHT22;11077;50.264;6.798;2022-10-31T11:45:14;16.80;99.90
21830;DHT22;11077;50.264;6.798;2022-10-31T11:47:44;16.80;99.90
21830;DHT22;11077;50.264;6.798;2022-10-31T11:50:27;16.80;99.90
21830;DHT22;11077;50.264;6.798;2022-10-31T11:52:55;16.70;99.90
21830;DHT22;11077;50.264;6.798;2022-10-31T11:55:31;16.60;99.90
21830;DHT22;11077;50.264;6.798;2022-10-31T11:57:59;16.60;99.90
21830;DHT22;11077;50.264;6.798;2022-10-31T12:00:28;16.60;99.90
21830;DHT22;11077;50.264;6.798;2022-10-31T12:03:11;16.60;99.90
21830;DHT22;11077;50.264;6.798;2022-10-31T12:05:41;16.50;99.90
21830;DHT22;11077;50.264;6.798;2022-10-31T12:08:12;16.50;99.90
21830;DHT22;11077;50.264;6.798;2022-10-31T12:10:47;16.50;99.90
21830;DHT22;11077;50.264;6.798;2022-10-31T12:13:30;16.50;99.90
21830;DHT22;11077;50.264;6.798;2022-10-31T12:16:05;16.50;99.90
21830;DHT22;11077;50.264;6.798;2022-10-31T12:18:48;16.50;99.90
21830;DHT22;11077;50.264;6.798;2022-10-31T12:21:31;16.50;99.90
21830;DHT22;11077;50.264;6.798;2022-10-31T12:24:13;16.60;99.90
21830;DHT22;11077;50.264;6.798;2022-10-31T12:26:46;16.60;99.90
21830;DHT22;11077;50.264;6.798;2022-10-31T12:29:27;16.60;99.90
21830;DHT22;11077;50.264;6.798;2022-10-31T12:32:15;16.70;99.90
21830;DHT22;11077;50.264;6.798;2022-10-31T12:34:55;16.70;99.90
21830;DHT22;11077;50.264;6.798;2022-10-31T12:37:40;16.70;99.90
21830;DHT22;11077;50.264;6.798;2022-10-31T12:40:30;16.60;99.90
21830;DHT22;11077;50.264;6.798;2022-10-31T12:43:09;16.70;99.90
21830;DHT22;11077;50.264;6.798;2022-10-31T12:45:47;16.70;99.90
21830;DHT22;11077;50.264;6.798;2022-10-31T12:48:37;16.70;99.90
21830;DHT22;11077;50.264;6.798;2022-10-31T12:51:14;16.60;99.90
21830;DHT22;11077;50.264;6.798;2022-10-31T12:53:59;16.60;99.90
21830;DHT22;11077;50.264;6.798;2022-10-31T12:56:41;16.60;99.90
21830;DHT22;11077;50.264;6.798;2022-10-31T12:59:17;16.50;99.90
21830;DHT22;11077;50.264;6.798;2022-10-31T13:01:50;16.50;99.90
21830;DHT22;11077;50.264;6.798;2022-10-31T13:04:28;16.50;99.90
21830;DHT22;11077;50.264;6.798;2022-10-31T13:07:02;16.50;99.90
21830;DHT22;11077;50.264;6.798;2022-10-31T13:09:35;16.50;99.90
21830;DHT22;11077;50.264;6.798;2022-10-31T13:12:07;16.50;99.90
21830;DHT22;11077;50.264;6.798;2022-10-31T13:14:39;16.50;99.90
21830;DHT22;11077;50.264;6.798;2022-10-31T13:17:24;16.60;99.90
21830;DHT22;11077;50.264;6.798;2022-10-31T13:20:03;16.50;99.90
21830;DHT22;11077;50.264;6.798;2022-10-31T13:22:36;16.60;99.90
21830;DHT22;11077;50.264;6.798;2022-10-31T13:25:11;16.60;99.90
21830;DHT22;11077;50.264;6.798;2022-10-31T13:27:47;16.70;99.90
21830;DHT22;11077;50.264;6.798;2022-10-31T13:30:18;16.70;99.90
21830;DHT22;11077;50.264;6.798;2022-10-31T13:32:50;16.70;99.90
21830;DHT22;11077;50.264;6.798;2022-10-31T13:35:24;16.80;99.90
21830;DHT22;11077;50.264;6.798;2022-10-31T13:38:01;16.80;99.90
21830;DHT22;11077;50.264;6.798;2022-10-31T13:40:38;16.80;99.90
21830;DHT22;11077;50.264;6.798;2022-10-31T13:43:15;16.80;99.90
21830;DHT22;11077;50.264;6.798;2022-10-31T13:45:50;16.80;99.90
21830;DHT22;11077;50.264;6.798;2022-10-31T13:48:28;16.80;99.90
21830;DHT22;11077;50.264;6.798;2022-10-31T13:51:01;16.80;99.90
21830;DHT22;11077;50.264;6.798;2022-10-31T13:56:24;16.80;99.90
21830;DHT22;11077;50.264;6.798;2022-10-31T13:59:15;16.70;99.90
21830;DHT22;11077;50.264;6.798;2022-10-31T14:01:48;16.70;99.90
21830;DHT22;11077;50.264;6.798;2022-10-31T14:04:18;16.70;99.90
21830;DHT22;11077;50.264;6.798;2022-10-31T14:06:56;16.70;99.90
21830;DHT22;11077;50.264;6.798;2022-10-31T14:09:28;16.60;99.90
21830;DHT22;11077;50.264;6.798;2022-10-31T14:11:59;16.60;99.90
21830;DHT22;11077;50.264;6.798;2022-10-31T14:14:46;16.50;99.90
21830;DHT22;11077;50.264;6.798;2022-10-31T14:17:27;16.50;99.90
21830;DHT22;11077;50.264;6.798;2022-10-31T14:20:02;16.40;99.90
21830;DHT22;11077;50.264;6.798;2022-10-31T14:22:32;16.40;99.90
21830;DHT22;11077;50.264;6.798;2022-10-31T14:25:01;16.50;99.90
21830;DHT22;11077;50.264;6.798;2022-10-31T14:27:47;16.50;99.90
21830;DHT22;11077;50.264;6.798;2022-10-31T14:30:16;16.50;99.90
21830;DHT22;11077;50.264;6.798;2022-10-31T14:32:47;16.40;99.90
21830;DHT22;11077;50.264;6.798;2022-10-31T14:35:16;16.50;99.90
21830;DHT22;11077;50.264;6.798;2022-10-31T14:38:15;16.50;99.90
21830;DHT22;11077;50.264;6.798;2022-10-31T14:41:06;16.50;99.90
21830;DHT22;11077;50.264;6.798;2022-10-31T14:46:53;16.60;99.90
21830;DHT22;11077;50.264;6.798;2022-10-31T14:52:18;16.50;99.90
21830;DHT22;11077;50.264;6.798;2022-10-31T14:54:51;16.50;99.90
21830;DHT22;11077;50.264;6.798;2022-10-31T14:57:22;16.40;99.90
21830;DHT22;11077;50.264;6.798;2022-10-31T14:59:53;16.30;99.90
21830;DHT22;11077;50.264;6.798;2022-10-31T15:02:25;16.20;99.90
21830;DHT22;11077;50.264;6.798;2022-10-31T15:04:55;16.20;99.90
21830;DHT22;11077;50.264;6.798;2022-10-31T15:07:26;16.10;99.90
21830;DHT22;11077;50.264;6.798;2022-10-31T15:09:58;16.00;99.90
21830;DHT22;11077;50.264;6.798;2022-10-31T15:12:34;15.90;99.90
21830;DHT22;11077;50.264;6.798;2022-10-31T15:15:12;15.80;99.90
21830;DHT22;11077;50.264;6.798;2022-10-31T15:17:44;15.80;99.90
21830;DHT22;11077;50.264;6.798;2022-10-31T15:20:19;15.80;99.90
21830;DHT22;11077;50.264;6.798;2022-10-31T15:22:47;15.80;99.90
21830;DHT22;11077;50.264;6.798;2022-10-31T15:25:20;15.80;99.90
21830;DHT22;11077;50.264;6.798;2022-10-31T15:27:52;15.80;99.90
21830;DHT22;11077;50.264;6.798;2022-10-31T15:30:24;15.80;99.90
21830;DHT22;11077;50.264;6.798;2022-10-31T15:32:54;15.80;99.90
21830;DHT22;11077;50.264;6.798;2022-10-31T15:35:24;15.70;99.90
21830;DHT22;11077;50.264;6.798;2022-10-31T15:37:52;15.70;99.90
21830;DHT22;11077;50.264;6.798;2022-10-31T15:40:22;15.60;99.90
21830;DHT22;11077;50.264;6.798;2022-10-31T15:42:52;15.60;99.90
21830;DHT22;11077;50.264;6.798;2022-10-31T15:45:23;15.60;99.90
21830;DHT22;11077;50.264;6.798;2022-10-31T15:47:56;15.40;99.90
21830;DHT22;11077;50.264;6.798;2022-10-31T15:50:28;15.40;99.90
21830;DHT22;11077;50.264;6.798;2022-10-31T15:53:03;15.30;99.90
21830;DHT22;11077;50.264;6.798;2022-10-31T15:55:35;15.30;99.90
21830;DHT22;11077;50.264;6.798;2022-10-31T15:58:12;15.20;99.90
21830;DHT22;11077;50.264;6.798;2022-10-31T16:00:42;15.10;99.90
21830;DHT22;11077;50.264;6.798;2022-10-31T16:03:23;15.00;99.90
21830;DHT22;11077;50.264;6.798;2022-10-31T16:05:53;14.90;99.90
21830;DHT22;11077;50.264;6.798;2022-10-31T16:08:33;14.90;99.90
21830;DHT22;11077;50.264;6.798;2022-10-31T16:11:13;14.80;99.90
21830;DHT22;11077;50.264;6.798;2022-10-31T16:13:54;14.70;99.90
21830;DHT22;11077;50.264;6.798;2022-10-31T16:16:24;14.60;99.90
21830;DHT22;11077;50.264;6.798;2022-10-31T16:18:54;14.50;99.90
21830;DHT22;11077;50.264;6.798;2022-10-31T16:21:27;14.50;99.90
21830;DHT22;11077;50.264;6.798;2022-10-31T16:23:59;14.40;99.90
21830;DHT22;11077;50.264;6.798;2022-10-31T16:26:27;14.40;99.90
21830;DHT22;11077;50.264;6.798;2022-10-31T16:28:56;14.40;99.90
21830;DHT22;11077;50.264;6.798;2022-10-31T16:31:30;14.30;99.90
21830;DHT22;11077;50.264;6.798;2022-10-31T16:34:13;14.30;99.90
21830;DHT22;11077;50.264;6.798;2022-10-31T16:36:41;14.20;99.90
21830;DHT22;11077;50.264;6.798;2022-10-31T16:39:09;14.20;99.90
21830;DHT22;11077;50.264;6.798;2022-10-31T16:41:39;14.10;99.90
21830;DHT22;11077;50.264;6.798;2022-10-31T16:44:17;14.00;99.90
21830;DHT22;11077;50.264;6.798;2022-10-31T16:46:45;14.00;99.90